Time;durP1;ratioP1;P1;durP2;ratioP2;P2;SDS_P1;SDS_P2;PMS_P1;PMS_P2;Temp;Humidity;BMP_temperature;BMP_pressure;BME280_temperature;BME280_humidity;BME280_pressure;Samples;Min_cycle;Max_cycle;Signal;HPM_P1;HPM_P2
2023/10/02 00:01:10;;;;;;;;;;;;;;;30.27;24.89;98946.56;5010438;28;19919;-88
2023/10/02 00:03:40;;;;;;;;;;;;;;;30.55;24.82;98948.47;5005354;28;20008;-88
2023/10/02 00:06:09;;;;;;;;;;;;;;;30.56;24.85;98948.00;5011953;28;20389;-88
2023/10/02 00:08:42;;;;;;;;;;;;;;;30.51;24.70;98942.91;5009772;28;19992;-88
2023/10/02 00:11:35;;;;;;;;;;;;;;;30.44;24.87;98943.16;5003985;28;19932;-87
2023/10/02 00:14:27;;;;;;;;;;;;;;;30.52;25.00;98946.53;5015630;28;20384;-88
2023/10/02 00:16:59;;;;;;;;;;;;;;;30.69;24.58;98936.63;4997775;28;19921;-87
2023/10/02 00:19:28;;;;;;;;;;;;;;;30.48;24.85;98926.81;5006988;28;19921;-88
2023/10/02 00:22:03;;;;;;;;;;;;;;;30.64;25.07;98934.38;5001863;28;20008;-87
2023/10/02 00:24:32;;;;;;;;;;;;;;;30.90;24.74;98932.25;5006613;28;19971;-87
2023/10/02 00:26:58;;;;;;;;;;;;;;;30.85;25.09;98933.63;5010482;28;19921;-88
2023/10/02 00:29:26;;;;;;;;;;;;;;;30.92;25.27;98924.88;5010489;28;19921;-87
2023/10/02 00:31:53;;;;;;;;;;;;;;;30.95;25.13;98929.63;5005343;28;20293;-88
2023/10/02 00:34:37;;;;;;;;;;;;;;;30.93;25.09;98932.13;5004447;28;20376;-87
2023/10/02 00:37:08;;;;;;;;;;;;;;;30.91;25.03;98928.97;5010559;28;19924;-87
2023/10/02 00:39:38;;;;;;;;;;;;;;;30.70;25.24;98921.97;5007584;28;19926;-87
2023/10/02 00:42:15;;;;;;;;;;;;;;;30.71;25.40;98928.47;5010413;28;20452;-87
2023/10/02 00:44:52;;;;;;;;;;;;;;;30.95;25.11;98920.34;5006521;28;19926;-87
2023/10/02 00:47:41;;;;;;;;;;;;;;;31.23;24.29;98910.72;5010047;28;19944;-87
2023/10/02 00:50:10;;;;;;;;;;;;;;;31.24;24.51;98907.44;5010716;28;19925;-87
2023/10/02 00:52:41;;;;;;;;;;;;;;;31.28;24.31;98918.66;5008539;28;20456;-87
2023/10/02 00:55:08;;;;;;;;;;;;;;;31.32;24.67;98916.50;5012262;28;19926;-88
2023/10/02 00:57:36;;;;;;;;;;;;;;;31.09;24.72;98922.63;5009447;28;20026;-88
2023/10/02 01:00:06;;;;;;;;;;;;;;;31.08;25.02;98921.06;5007247;28;19925;-88
2023/10/02 01:02:34;;;;;;;;;;;;;;;31.10;24.88;98921.38;5012896;28;20309;-88
2023/10/02 01:05:01;;;;;;;;;;;;;;;30.85;25.20;98915.81;5007316;28;19968;-88
2023/10/02 01:07:28;;;;;;;;;;;;;;;30.84;25.01;98905.69;5005046;28;19928;-88
2023/10/02 01:10:11;;;;;;;;;;;;;;;31.09;24.90;98914.91;5012610;28;19975;-88
2023/10/02 01:12:43;;;;;;;;;;;;;;;31.02;24.87;98912.34;5004324;28;19975;-88
2023/10/02 01:15:13;;;;;;;;;;;;;;;30.92;24.84;98913.53;5008454;28;20008;-88
2023/10/02 01:17:40;;;;;;;;;;;;;;;30.81;25.24;98915.16;5011473;28;19928;-88
2023/10/02 01:20:14;;;;;;;;;;;;;;;30.45;25.60;98921.28;5006615;28;19929;-88
2023/10/02 01:22:42;;;;;;;;;;;;;;;30.54;25.68;98924.19;5011906;28;19968;-88
2023/10/02 01:25:15;;;;;;;;;;;;;;;30.71;25.53;98926.38;5012701;28;20368;-88
2023/10/02 01:27:46;;;;;;;;;;;;;;;30.86;25.07;98925.88;5010455;28;19979;-88
2023/10/02 01:30:16;;;;;;;;;;;;;;;30.98;25.23;98927.91;5006011;28;20459;-88
2023/10/02 01:33:37;;;;;;;;;;;;;;;31.05;25.07;98927.63;5004132;28;20025;-88
2023/10/02 01:35:46;;;;;;;;;;;;;;;31.01;25.22;98941.97;5013516;28;19922;-88
2023/10/02 01:38:13;;;;;;;;;;;;;;;31.25;24.88;98942.31;5010521;28;19931;-88
2023/10/02 01:40:53;;;;;;;;;;;;;;;31.46;24.76;98924.47;5005603;28;19921;-88
2023/10/02 01:43:24;;;;;;;;;;;;;;;31.35;24.59;98929.72;5007078;28;20033;-88
2023/10/02 01:45:56;;;;;;;;;;;;;;;31.15;24.77;98932.13;5010536;28;19998;-88
2023/10/02 01:48:41;;;;;;;;;;;;;;;30.96;25.26;98928.38;5008097;28;20049;-88
2023/10/02 01:51:21;;;;;;;;;;;;;;;30.96;25.29;98928.38;5011915;28;20370;-88
2023/10/02 01:54:15;;;;;;;;;;;;;;;30.84;25.49;98934.84;5003827;28;20293;-86
2023/10/02 01:56:45;;;;;;;;;;;;;;;30.70;25.78;98938.19;5013133;28;20026;-86
2023/10/02 01:59:14;;;;;;;;;;;;;;;30.70;25.40;98941.84;5006050;28;20027;-87
2023/10/02 02:01:49;;;;;;;;;;;;;;;30.50;26.04;98943.38;5011546;28;20093;-86
2023/10/02 02:04:18;;;;;;;;;;;;;;;30.73;25.82;98940.94;5004260;28;20012;-86
2023/10/02 02:06:54;;;;;;;;;;;;;;;31.05;25.49;98942.63;5010075;28;19928;-86
2023/10/02 02:09:24;;;;;;;;;;;;;;;31.25;24.95;98945.13;5006759;28;19922;-86
2023/10/02 02:12:05;;;;;;;;;;;;;;;31.41;24.81;98942.84;5000710;28;19921;-87
2023/10/02 02:14:31;;;;;;;;;;;;;;;31.72;24.54;98933.59;5008309;28;20027;-87
2023/10/02 02:16:58;;;;;;;;;;;;;;;31.31;25.18;98932.72;5004764;28;20061;-87
2023/10/02 02:19:25;;;;;;;;;;;;;;;30.69;25.77;98936.63;5001280;28;19918;-86
2023/10/02 02:21:56;;;;;;;;;;;;;;;30.58;26.17;98942.66;4995326;28;20016;-86
2023/10/02 02:24:34;;;;;;;;;;;;;;;30.58;26.23;98939.81;5012818;28;19925;-86
2023/10/02 02:27:04;;;;;;;;;;;;;;;31.01;25.96;98938.34;5003716;28;20031;-86
2023/10/02 02:29:30;;;;;;;;;;;;;;;31.30;26.02;98933.16;5009151;28;19944;-87
2023/10/02 02:31:56;;;;;;;;;;;;;;;31.07;26.08;98942.16;5000122;28;19985;-87
2023/10/02 02:35:00;;;;;;;;;;;;;;;30.91;25.96;98934.63;5007923;28;19946;-87
2023/10/02 02:37:28;;;;;;;;;;;;;;;30.72;26.65;98932.84;5005326;28;19921;-88
2023/10/02 02:40:21;;;;;;;;;;;;;;;30.47;26.88;98930.91;5007121;28;19929;-88
2023/10/02 02:42:43;;;;;;;;;;;;;;;30.46;27.18;98926.47;5002814;28;20151;-88
2023/10/02 02:45:24;;;;;;;;;;;;;;;30.64;26.53;98928.72;5007664;28;20310;-87
2023/10/02 02:47:51;;;;;;;;;;;;;;;30.60;26.39;98931.66;5005416;28;20288;-88
2023/10/02 02:50:17;;;;;;;;;;;;;;;30.57;26.28;98926.13;5006184;28;19969;-88
2023/10/02 02:52:43;;;;;;;;;;;;;;;30.47;26.38;98924.44;5012108;28;19933;-88
2023/10/02 02:55:15;;;;;;;;;;;;;;;30.53;26.28;98928.25;5004063;28;19960;-87
2023/10/02 02:57:45;;;;;;;;;;;;;;;30.75;26.21;98932.75;5003321;28;19922;-87
2023/10/02 03:00:31;;;;;;;;;;;;;;;31.25;25.33;98928.88;4993196;28;20289;-88
2023/10/02 03:03:00;;;;;;;;;;;;;;;31.62;25.10;98931.97;5005751;28;19932;-87
2023/10/02 03:05:38;;;;;;;;;;;;;;;31.53;24.74;98927.03;5014734;28;20516;-88
2023/10/02 03:08:05;;;;;;;;;;;;;;;31.23;25.25;98936.28;5005519;28;19936;-87
2023/10/02 03:10:36;;;;;;;;;;;;;;;31.13;25.52;98935.44;5011178;28;19968;-88
2023/10/02 03:13:03;;;;;;;;;;;;;;;31.46;25.27;98938.66;5005018;28;19971;-88
2023/10/02 03:15:46;;;;;;;;;;;;;;;31.73;24.75;98930.28;5001969;28;19988;-88
2023/10/02 03:18:31;;;;;;;;;;;;;;;31.90;24.94;98934.44;5008769;28;19974;-88
2023/10/02 03:23:38;;;;;;;;;;;;;;;32.13;24.25;98927.47;5006060;28;19926;-88
2023/10/02 03:26:26;;;;;;;;;;;;;;;31.89;24.94;98930.03;5009757;28;19929;-88
2023/10/02 03:29:02;;;;;;;;;;;;;;;31.44;25.07;98932.66;5005350;28;19921;-88
2023/10/02 03:31:35;;;;;;;;;;;;;;;31.09;25.83;98933.97;5016788;28;19921;-87
2023/10/02 03:34:24;;;;;;;;;;;;;;;30.73;26.02;98935.25;5013093;28;19936;-88
2023/10/02 03:36:48;;;;;;;;;;;;;;;30.55;26.47;98929.41;5014417;28;19965;-88
2023/10/02 03:39:23;;;;;;;;;;;;;;;30.79;26.01;98929.75;5011932;28;20386;-87
2023/10/02 03:41:50;;;;;;;;;;;;;;;31.16;25.49;98931.66;5007169;28;20401;-87
2023/10/02 03:44:16;;;;;;;;;;;;;;;31.37;25.58;98932.91;5009256;28;19921;-86
2023/10/02 03:46:42;;;;;;;;;;;;;;;31.52;24.97;98925.47;5013400;28;20416;-88
2023/10/02 03:49:09;;;;;;;;;;;;;;;31.63;25.23;98933.53;5005193;28;19933;-89
2023/10/02 03:51:40;;;;;;;;;;;;;;;31.85;24.67;98939.97;5016126;28;20297;-89
2023/10/02 03:54:29;;;;;;;;;;;;;;;31.94;24.79;98945.69;5006741;28;19980;-88
2023/10/02 03:56:55;;;;;;;;;;;;;;;31.99;24.97;98950.78;5011060;28;19921;-88
2023/10/02 03:59:25;;;;;;;;;;;;;;;31.74;25.17;98943.22;5007730;28;19929;-88
2023/10/02 04:01:52;;;;;;;;;;;;;;;31.66;25.09;98943.97;5004893;28;20385;-88
2023/10/02 04:04:24;;;;;;;;;;;;;;;31.72;25.04;98940.06;5006126;28;19922;-88
2023/10/02 04:06:53;;;;;;;;;;;;;;;31.59;25.27;98944.25;5003888;28;19922;-88
2023/10/02 04:09:23;;;;;;;;;;;;;;;31.35;25.57;98946.75;5008108;28;19969;-88
2023/10/02 04:11:51;;;;;;;;;;;;;;;31.24;25.87;98941.50;5004804;28;20458;-88
2023/10/02 04:14:31;;;;;;;;;;;;;;;31.13;25.86;98943.97;5008525;28;20408;-88
2023/10/02 04:17:13;;;;;;;;;;;;;;;31.36;25.73;98940.66;5002925;28;19941;-86
2023/10/02 04:19:51;;;;;;;;;;;;;;;31.51;25.72;98940.13;5010924;28;20017;-86
2023/10/02 04:22:25;;;;;;;;;;;;;;;31.55;25.39;98938.72;5008142;28;20028;-85
2023/10/02 04:24:58;;;;;;;;;;;;;;;31.65;25.40;98953.78;5000256;28;20009;-85
2023/10/02 04:27:27;;;;;;;;;;;;;;;31.62;25.37;98960.38;4998990;28;19921;-88
2023/10/02 04:32:34;;;;;;;;;;;;;;;31.74;25.42;98956.66;5004948;28;19922;-88
2023/10/02 04:35:02;;;;;;;;;;;;;;;31.73;25.54;98953.00;5002309;28;20440;-88
2023/10/02 04:37:31;;;;;;;;;;;;;;;31.85;25.39;98952.13;5010174;28;20009;-87
2023/10/02 04:42:57;;;;;;;;;;;;;;;31.40;25.72;98946.97;5007855;28;19925;-89
2023/10/02 04:45:25;;;;;;;;;;;;;;;31.08;26.22;98950.22;5003218;28;20009;-87
2023/10/02 04:47:55;;;;;;;;;;;;;;;31.03;26.22;98952.84;5012685;28;19951;-87
2023/10/02 04:52:57;;;;;;;;;;;;;;;31.41;26.18;98957.03;5007822;28;19925;-86
2023/10/02 04:55:42;;;;;;;;;;;;;;;31.61;25.65;98961.63;5011238;28;20404;-85
2023/10/02 04:58:17;;;;;;;;;;;;;;;31.33;26.06;98960.63;5009168;28;19960;-88
2023/10/02 05:03:49;;;;;;;;;;;;;;;31.38;26.15;98966.50;5016335;28;19929;-88
2023/10/02 05:06:39;;;;;;;;;;;;;;;31.70;25.76;98956.78;5014372;28;19917;-88
2023/10/02 05:11:50;;;;;;;;;;;;;;;31.53;25.97;98955.41;5014108;28;19988;-88
2023/10/02 05:14:29;;;;;;;;;;;;;;;31.15;26.80;98966.19;5012722;28;19921;-88
2023/10/02 05:22:31;;;;;;;;;;;;;;;30.94;26.97;98976.25;5005292;28;20292;-88
2023/10/02 05:25:04;;;;;;;;;;;;;;;30.90;27.29;98974.81;5013051;28;19976;-88
2023/10/02 05:27:32;;;;;;;;;;;;;;;31.03;27.21;98975.53;5002018;28;19921;-88
2023/10/02 05:30:05;;;;;;;;;;;;;;;30.93;27.47;98974.66;5014166;28;19917;-88
2023/10/02 05:32:35;;;;;;;;;;;;;;;31.00;27.27;98982.13;5012966;28;20409;-87
2023/10/02 05:37:42;;;;;;;;;;;;;;;30.86;27.76;98983.41;5006283;28;19921;-88
2023/10/02 05:42:46;;;;;;;;;;;;;;;31.00;27.51;98979.28;5008476;28;19922;-88
2023/10/02 05:45:13;;;;;;;;;;;;;;;31.06;27.21;98988.81;5009731;28;19979;-88
2023/10/02 05:47:40;;;;;;;;;;;;;;;30.99;27.56;98980.56;5009264;28;19928;-88
2023/10/02 05:50:07;;;;;;;;;;;;;;;30.93;27.77;98988.06;5007995;28;19928;-87
2023/10/02 05:52:35;;;;;;;;;;;;;;;31.01;28.03;98989.41;5011077;28;19930;-88
2023/10/02 05:55:01;;;;;;;;;;;;;;;31.15;27.24;98992.50;5007223;28;20274;-88
2023/10/02 05:57:31;;;;;;;;;;;;;;;31.10;27.37;98986.63;5009448;28;19922;-88
2023/10/02 06:00:00;;;;;;;;;;;;;;;31.06;27.71;98995.28;5001096;28;20005;-87
2023/10/02 06:02:27;;;;;;;;;;;;;;;31.00;26.99;98993.47;5012904;28;20408;-86
2023/10/02 06:04:54;;;;;;;;;;;;;;;30.93;27.63;98988.06;5013853;28;19961;-86
2023/10/02 06:07:40;;;;;;;;;;;;;;;31.28;27.39;98992.44;5013823;28;19924;-86
2023/10/02 06:10:08;;;;;;;;;;;;;;;31.60;26.55;98992.06;4996815;28;19928;-86
2023/10/02 06:12:35;;;;;;;;;;;;;;;31.37;27.55;98996.13;5010853;28;20002;-86
2023/10/02 06:15:09;;;;;;;;;;;;;;;30.93;27.90;98999.41;5013599;28;19924;-86
2023/10/02 06:17:35;;;;;;;;;;;;;;;30.47;28.93;99003.81;5013818;28;19940;-86
2023/10/02 06:20:02;;;;;;;;;;;;;;;30.97;28.13;99000.84;5013622;28;19957;-86
2023/10/02 06:22:28;;;;;;;;;;;;;;;31.33;27.67;99001.16;5013836;28;19926;-86
2023/10/02 06:24:54;;;;;;;;;;;;;;;31.83;27.17;99002.13;5012112;28;20332;-87
2023/10/02 06:27:24;;;;;;;;;;;;;;;32.04;26.65;99007.00;4994150;28;19961;-87
2023/10/02 06:29:51;;;;;;;;;;;;;;;32.18;26.45;99003.59;5013889;28;19921;-87
2023/10/02 06:32:19;;;;;;;;;;;;;;;31.85;27.19;99005.31;5013421;28;19929;-87
2023/10/02 06:34:47;;;;;;;;;;;;;;;31.59;28.07;99013.19;5013734;28;19917;-87
2023/10/02 06:37:16;;;;;;;;;;;;;;;31.40;28.19;99011.44;5013854;28;19924;-87
2023/10/02 06:39:45;;;;;;;;;;;;;;;31.06;28.79;99020.03;5017287;28;19922;-87
2023/10/02 06:42:15;;;;;;;;;;;;;;;31.08;28.69;99021.16;5017109;28;19983;-87
2023/10/02 06:44:42;;;;;;;;;;;;;;;31.10;28.46;99027.16;5017769;28;20007;-87
2023/10/02 06:47:13;;;;;;;;;;;;;;;31.33;29.03;99025.91;5017310;28;19918;-87
2023/10/02 06:49:39;;;;;;;;;;;;;;;31.87;28.20;99022.66;5016994;28;19921;-87
2023/10/02 06:52:15;;;;;;;;;;;;;;;32.40;27.66;99018.50;5017135;28;19944;-87
2023/10/02 06:54:45;;;;;;;;;;;;;;;32.60;27.21;99018.13;5017118;28;20465;-87
2023/10/02 06:57:13;;;;;;;;;;;;;;;32.69;27.71;99021.00;5016790;28;19925;-87
2023/10/02 06:59:39;;;;;;;;;;;;;;;32.57;27.50;99019.84;5015468;28;19922;-87
2023/10/02 07:02:06;;;;;;;;;;;;;;;32.63;28.20;99015.13;5017538;28;20008;-87
2023/10/02 07:04:35;;;;;;;;;;;;;;;32.86;28.25;99004.44;5016812;28;19922;-87
2023/10/02 07:07:07;;;;;;;;;;;;;;;33.19;27.28;99013.94;5016789;28;19917;-87
2023/10/02 07:09:34;;;;;;;;;;;;;;;32.78;26.87;99012.47;5016841;28;19975;-87
2023/10/02 07:12:13;;;;;;;;;;;;;;;33.15;27.49;98999.09;5016451;28;20000;-87
2023/10/02 07:14:41;;;;;;;;;;;;;;;33.48;25.51;99002.84;5016959;28;19924;-87
2023/10/02 07:17:16;;;;;;;;;;;;;;;33.58;26.52;99012.22;5016583;28;19917;-87
2023/10/02 07:19:48;;;;;;;;;;;;;;;33.14;27.29;99015.38;5025932;28;20067;-87
2023/10/02 07:22:23;;;;;;;;;;;;;;;33.27;27.10;99009.53;5035106;28;20019;-87
2023/10/02 07:24:52;;;;;;;;;;;;;;;33.40;25.76;99010.94;5013357;28;20402;-87
2023/10/02 07:27:27;;;;;;;;;;;;;;;33.79;25.08;99011.22;4996745;28;19980;-87
2023/10/02 07:29:57;;;;;;;;;;;;;;;33.79;25.90;99014.06;4996914;28;19924;-87
2023/10/02 07:32:31;;;;;;;;;;;;;;;34.27;25.81;99015.81;4996645;28;20057;-87
2023/10/02 07:35:09;;;;;;;;;;;;;;;34.60;24.89;99016.63;4996776;28;20067;-87
2023/10/02 07:37:36;;;;;;;;;;;;;;;34.76;24.84;99021.13;5014498;28;19917;-87
2023/10/02 07:40:06;;;;;;;;;;;;;;;34.86;24.77;99014.09;5016083;28;19918;-87
2023/10/02 07:42:32;;;;;;;;;;;;;;;34.77;25.21;99016.22;5015801;28;20352;-87
2023/10/02 07:45:11;;;;;;;;;;;;;;;34.86;25.08;99025.50;5015895;28;20005;-87
2023/10/02 07:47:39;;;;;;;;;;;;;;;34.72;24.70;99011.97;5016210;28;20015;-87
2023/10/02 07:50:23;;;;;;;;;;;;;;;34.66;24.84;99011.81;5015737;28;19922;-87
2023/10/02 07:52:49;;;;;;;;;;;;;;;34.97;24.99;99019.22;5015772;28;19925;-87
2023/10/02 07:55:15;;;;;;;;;;;;;;;35.07;24.45;99017.94;5015668;28;19932;-87
2023/10/02 07:57:41;;;;;;;;;;;;;;;34.79;25.36;99014.44;5015940;28;19918;-87
2023/10/02 08:00:33;;;;;;;;;;;;;;;35.02;24.00;99018.59;5016083;28;19918;-87
2023/10/02 08:02:54;;;;;;;;;;;;;;;34.96;24.61;99017.66;5015887;28;20296;-87
2023/10/02 08:05:20;;;;;;;;;;;;;;;34.70;25.09;99012.44;5015991;28;19917;-87
2023/10/02 08:07:47;;;;;;;;;;;;;;;34.62;25.21;99019.78;5015903;28;19957;-87
2023/10/02 08:10:14;;;;;;;;;;;;;;;34.58;25.06;99013.47;5020813;28;19921;-87
2023/10/02 08:12:54;;;;;;;;;;;;;;;34.74;24.47;99013.06;5035493;28;19917;-87
2023/10/02 08:15:27;;;;;;;;;;;;;;;34.73;24.46;99002.91;5035565;28;20304;-87
2023/10/02 08:20:24;;;;;;;;;;;;;;;34.38;24.82;99007.53;5020651;28;20386;-87
2023/10/02 08:22:52;;;;;;;;;;;;;;;34.49;24.75;99004.16;5008802;28;20028;-87
2023/10/02 08:25:23;;;;;;;;;;;;;;;34.49;24.43;99002.09;4995598;28;20340;-87
2023/10/02 08:27:55;;;;;;;;;;;;;;;35.02;24.70;99004.31;5007386;28;19918;-87
2023/10/02 08:30:28;;;;;;;;;;;;;;;34.97;24.86;98999.25;5013992;28;20343;-87
2023/10/02 08:33:19;;;;;;;;;;;;;;;35.20;24.62;98998.44;5015293;28;19922;-87
2023/10/02 08:35:46;;;;;;;;;;;;;;;35.09;23.87;98996.19;5015321;28;19971;-87
2023/10/02 08:38:21;;;;;;;;;;;;;;;35.01;23.70;98994.94;5015145;28;19914;-88
2023/10/02 08:40:57;;;;;;;;;;;;;;;35.30;24.08;98992.19;5014963;28;19969;-87
2023/10/02 08:43:23;;;;;;;;;;;;;;;35.39;23.75;98989.25;5014893;28;19958;-87
2023/10/02 08:45:50;;;;;;;;;;;;;;;35.51;23.95;98989.47;5015539;28;19971;-87
2023/10/02 08:48:19;;;;;;;;;;;;;;;35.29;23.88;98998.38;5015152;28;19917;-87
2023/10/02 08:50:47;;;;;;;;;;;;;;;34.75;24.36;98997.50;5014769;28;19932;-87
2023/10/02 08:53:20;;;;;;;;;;;;;;;34.63;24.48;98998.56;5014609;28;20377;-87
2023/10/02 08:58:25;;;;;;;;;;;;;;;34.32;24.54;98995.22;5015074;28;19936;-88
2023/10/02 09:01:05;;;;;;;;;;;;;;;35.21;24.74;98989.41;5014976;28;20400;-87
2023/10/02 09:03:43;;;;;;;;;;;;;;;35.79;24.15;98994.41;5014619;28;19918;-88
2023/10/02 09:06:25;;;;;;;;;;;;;;;34.30;24.76;98994.09;5014833;28;19924;-90
2023/10/02 09:11:37;;;;;;;;;;;;;;;34.23;24.58;98985.91;5014385;28;19924;-88
2023/10/02 09:14:21;;;;;;;;;;;;;;;35.16;25.11;98987.25;5014558;28;19990;-88
2023/10/02 09:19:48;;;;;;;;;;;;;;;35.24;23.70;98981.94;5014799;28;19941;-88
2023/10/02 09:22:18;;;;;;;;;;;;;;;35.25;24.20;98984.28;5001662;28;19918;-88
2023/10/02 09:24:58;;;;;;;;;;;;;;;35.38;24.16;98978.31;4994956;28;19917;-88
2023/10/02 09:27:28;;;;;;;;;;;;;;;35.96;23.78;98975.47;4994668;28;19921;-88
2023/10/02 09:32:49;;;;;;;;;;;;;;;35.81;23.96;98980.41;4994355;28;19933;-87
2023/10/02 09:37:56;;;;;;;;;;;;;;;36.03;23.67;98977.19;5014054;28;19918;-88
2023/10/02 09:40:27;;;;;;;;;;;;;;;36.32;22.38;98974.22;5013943;28;20343;-88
2023/10/02 09:43:00;;;;;;;;;;;;;;;35.90;24.15;98982.38;4999433;28;19952;-88
2023/10/02 09:45:35;;;;;;;;;;;;;;;35.33;24.49;98971.22;4994443;28;19925;-88
2023/10/02 09:48:46;;;;;;;;;;;;;;;34.59;24.84;98975.09;4996070;28;19926;-94
2023/10/02 09:50:54;;;;;;;;;;;;;;;35.05;24.63;98971.94;5009591;28;19925;-93
2023/10/02 09:53:24;;;;;;;;;;;;;;;35.89;23.75;98977.94;5001919;28;20055;-94
2023/10/02 09:56:13;;;;;;;;;;;;;;;36.13;23.93;98961.47;4996179;28;19949;-93
2023/10/02 09:58:52;;;;;;;;;;;;;;;36.43;23.85;98956.47;5004943;28;19919;-93
2023/10/02 10:03:54;;;;;;;;;;;;;;;35.44;24.18;98964.91;4998316;28;19930;-90
2023/10/02 10:06:27;;;;;;;;;;;;;;;35.60;24.17;98969.38;5008128;28;19929;-93
2023/10/02 10:11:38;;;;;;;;;;;;;;;36.04;23.77;98968.09;4998267;28;19952;-93
2023/10/02 10:14:41;;;;;;;;;;;;;;;35.73;24.24;98976.38;5008141;28;19922;-93
2023/10/02 10:17:49;;;;;;;;;;;;;;;36.23;23.22;98965.00;5015422;28;19930;-94
2023/10/02 10:20:20;;;;;;;;;;;;;;;36.35;23.51;98972.47;5009029;28;19949;-92
2023/10/02 10:22:55;;;;;;;;;;;;;;;36.55;22.80;98961.84;5015188;28;19928;-94
2023/10/02 10:28:05;;;;;;;;;;;;;;;35.10;25.06;98962.72;5018436;28;19917;-94
2023/10/02 10:33:15;;;;;;;;;;;;;;;35.22;25.31;98968.13;5011546;28;20000;-92
2023/10/02 10:35:52;;;;;;;;;;;;;;;35.58;24.87;98966.22;4998990;28;19921;-93
2023/10/02 10:38:42;;;;;;;;;;;;;;;35.72;25.22;98969.09;5012097;28;19925;-93
2023/10/02 10:41:09;;;;;;;;;;;;;;;35.37;24.44;98968.94;5007234;28;20489;-93
2023/10/02 10:46:21;;;;;;;;;;;;;;;36.36;23.29;98956.88;5004837;28;19992;-95
2023/10/02 10:48:58;;;;;;;;;;;;;;;35.62;24.40;98961.88;5009040;28;19944;-92
2023/10/02 10:51:28;;;;;;;;;;;;;;;35.14;24.92;98961.25;5010205;28;20023;-93
2023/10/02 10:54:12;;;;;;;;;;;;;;;34.35;25.66;98956.38;5010765;28;19921;-93
2023/10/02 10:56:43;;;;;;;;;;;;;;;34.23;26.12;98958.19;5009711;28;20397;-93
2023/10/02 10:59:21;;;;;;;;;;;;;;;35.09;24.87;98961.13;5006929;28;19917;-93
2023/10/02 11:02:09;;;;;;;;;;;;;;;34.56;25.36;98950.41;5005799;28;19926;-93
2023/10/02 11:04:45;;;;;;;;;;;;;;;34.56;25.40;98952.47;5019789;28;20274;-92
2023/10/02 11:07:21;;;;;;;;;;;;;;;35.20;24.85;98947.06;5009572;28;20037;-93
2023/10/02 11:10:18;;;;;;;;;;;;;;;34.85;25.16;98943.22;5010284;28;19922;-93
2023/10/02 11:12:58;;;;;;;;;;;;;;;34.78;27.29;98932.97;5013281;28;20356;-91
2023/10/02 11:15:46;;;;;;;;;;;;;;;33.74;27.44;98932.09;5002325;28;20293;-90
2023/10/02 11:18:21;;;;;;;;;;;;;;;34.82;25.19;98929.94;5009564;28;20346;-91
2023/10/02 11:20:51;;;;;;;;;;;;;;;35.06;27.78;98931.47;5010173;28;20394;-89
2023/10/02 11:23:29;;;;;;;;;;;;;;;35.12;24.86;98925.88;5012888;28;19922;-91
2023/10/02 11:25:56;;;;;;;;;;;;;;;36.23;24.60;98922.09;5013380;28;19922;-91
2023/10/02 11:28:34;;;;;;;;;;;;;;;36.45;23.90;98920.38;5015121;28;20008;-92
2023/10/02 11:31:36;;;;;;;;;;;;;;;36.49;23.83;98917.28;5007807;28;19921;-90
2023/10/02 11:34:06;;;;;;;;;;;;;;;37.03;23.43;98925.03;5015537;28;19921;-90
2023/10/02 11:36:37;;;;;;;;;;;;;;;37.27;23.63;98916.94;5006954;28;19988;-93
2023/10/02 11:39:16;;;;;;;;;;;;;;;37.03;22.39;98912.78;5011561;28;20377;-91
2023/10/02 11:41:43;;;;;;;;;;;;;;;35.61;24.34;98919.53;5008410;28;19929;-91
2023/10/02 11:44:12;;;;;;;;;;;;;;;35.19;25.97;98919.78;5012385;28;20340;-89
2023/10/02 11:46:40;;;;;;;;;;;;;;;35.74;24.91;98917.16;5007250;28;19921;-89
2023/10/02 11:49:07;;;;;;;;;;;;;;;34.66;26.31;98917.69;5014256;28;19922;-90
2023/10/02 11:51:33;;;;;;;;;;;;;;;35.68;25.16;98917.06;5003718;28;19926;-94
2023/10/02 11:54:01;;;;;;;;;;;;;;;36.45;23.71;98906.06;5015159;28;19921;-91
2023/10/02 11:56:27;;;;;;;;;;;;;;;35.64;23.91;98916.47;5013355;28;20373;-92
2023/10/02 11:58:54;;;;;;;;;;;;;;;35.93;25.22;98905.00;5003483;28;20412;-92
2023/10/02 12:01:21;;;;;;;;;;;;;;;35.72;24.15;98914.78;4996978;28;19976;-87
2023/10/02 12:03:50;;;;;;;;;;;;;;;35.32;24.58;98908.88;5009095;28;20412;-88
2023/10/02 12:06:16;;;;;;;;;;;;;;;35.77;23.49;98908.38;5013993;28;19921;-91
2023/10/02 12:08:49;;;;;;;;;;;;;;;35.97;23.78;98914.19;5009414;28;19926;-90
2023/10/02 12:11:15;;;;;;;;;;;;;;;35.40;24.41;98910.06;5006989;28;19914;-90
2023/10/02 12:13:44;;;;;;;;;;;;;;;35.50;24.27;98908.69;4994831;28;20302;-90
2023/10/02 12:16:11;;;;;;;;;;;;;;;36.06;24.22;98891.19;5011103;28;19918;-90
2023/10/02 12:18:37;;;;;;;;;;;;;;;36.04;24.59;98893.75;4995808;28;19928;-89
2023/10/02 12:21:08;;;;;;;;;;;;;;;35.97;24.45;98894.16;5000798;28;19929;-90
2023/10/02 12:23:39;;;;;;;;;;;;;;;36.06;24.65;98890.38;4994619;28;19918;-90
2023/10/02 12:26:07;;;;;;;;;;;;;;;35.65;24.81;98897.25;5009838;28;20016;-90
2023/10/02 12:28:34;;;;;;;;;;;;;;;35.71;24.71;98889.56;4995789;28;19928;-88
2023/10/02 12:31:06;;;;;;;;;;;;;;;35.98;24.13;98890.03;5005555;28;19921;-89
2023/10/02 12:33:33;;;;;;;;;;;;;;;36.52;23.73;98896.25;5014785;28;19960;-92
2023/10/02 12:35:59;;;;;;;;;;;;;;;36.70;23.34;98890.25;5008530;28;20447;-93
2023/10/02 12:38:26;;;;;;;;;;;;;;;36.78;23.78;98893.47;5004622;28;19925;-92
2023/10/02 12:40:52;;;;;;;;;;;;;;;36.79;23.13;98895.03;5002895;28;19921;-93
2023/10/02 12:43:18;;;;;;;;;;;;;;;36.56;23.37;98893.97;5015349;28;19929;-92
2023/10/02 12:45:44;;;;;;;;;;;;;;;36.52;23.96;98884.81;5003448;28;19924;-92
2023/10/02 12:48:15;;;;;;;;;;;;;;;36.70;23.84;98881.66;5005583;28;20004;-92
2023/10/02 12:50:42;;;;;;;;;;;;;;;36.81;23.71;98889.59;5012412;28;19926;-93
2023/10/02 12:53:10;;;;;;;;;;;;;;;36.86;23.55;98881.06;5013201;28;20290;-92
2023/10/02 12:55:37;;;;;;;;;;;;;;;37.24;23.70;98883.59;5012536;28;19921;-93
2023/10/02 12:58:04;;;;;;;;;;;;;;;37.51;23.75;98875.78;5001697;28;20016;-92
2023/10/02 13:00:33;;;;;;;;;;;;;;;37.80;23.17;98873.41;5006134;28;20452;-92
2023/10/02 13:02:59;;;;;;;;;;;;;;;38.02;23.01;98861.31;4998490;28;20293;-91
2023/10/02 13:05:25;;;;;;;;;;;;;;;37.77;22.17;98862.16;5004963;28;19922;-93
2023/10/02 13:07:55;;;;;;;;;;;;;;;37.63;22.44;98863.88;5014193;28;19976;-92
2023/10/02 13:10:24;;;;;;;;;;;;;;;37.37;22.79;98863.13;5001822;28;19929;-92
2023/10/02 13:12:51;;;;;;;;;;;;;;;37.12;23.71;98861.84;5010451;28;20411;-92
2023/10/02 13:15:16;;;;;;;;;;;;;;;37.20;23.47;98862.94;5009986;28;19928;-93
2023/10/02 13:17:43;;;;;;;;;;;;;;;37.04;23.58;98859.94;5011927;28;20316;-93
2023/10/02 13:20:10;;;;;;;;;;;;;;;37.38;23.24;98859.00;4995788;28;19929;-93
2023/10/02 13:22:36;;;;;;;;;;;;;;;37.72;22.37;98845.69;5003224;28;20432;-93
2023/10/02 13:25:05;;;;;;;;;;;;;;;37.89;23.33;98846.63;5014539;28;20330;-93
2023/10/02 13:27:32;;;;;;;;;;;;;;;37.79;22.93;98837.41;5001124;28;19973;-94
2023/10/02 13:29:58;;;;;;;;;;;;;;;38.00;23.18;98838.09;5011589;28;19972;-93
2023/10/02 13:32:25;;;;;;;;;;;;;;;38.15;22.85;98835.84;5009912;28;19921;-93
2023/10/02 13:34:51;;;;;;;;;;;;;;;38.00;22.33;98838.88;5012473;28;19968;-93
2023/10/02 13:37:17;;;;;;;;;;;;;;;37.65;22.16;98843.28;5001329;28;19936;-94
2023/10/02 13:39:43;;;;;;;;;;;;;;;37.55;22.80;98842.72;5014149;28;20374;-94
2023/10/02 13:42:09;;;;;;;;;;;;;;;37.31;23.43;98836.50;5008342;28;19921;-93
2023/10/02 13:44:35;;;;;;;;;;;;;;;37.61;23.35;98837.81;5006636;28;19921;-89
2023/10/02 13:47:03;;;;;;;;;;;;;;;37.93;22.34;98835.69;5013730;28;20055;-89
2023/10/02 13:49:29;;;;;;;;;;;;;;;38.15;22.79;98832.97;5014285;28;19933;-88
2023/10/02 13:51:55;;;;;;;;;;;;;;;38.19;22.46;98830.63;5033260;28;19917;-89
2023/10/02 13:54:22;;;;;;;;;;;;;;;38.31;22.10;98822.91;5033642;28;19952;-88
2023/10/02 13:56:48;;;;;;;;;;;;;;;38.37;22.01;98823.72;5030210;28;19928;-88
2023/10/02 13:59:14;;;;;;;;;;;;;;;38.08;23.06;98826.94;5013596;28;20007;-89
2023/10/02 14:01:40;;;;;;;;;;;;;;;37.79;22.63;98825.16;5013796;28;19924;-88
2023/10/02 14:04:06;;;;;;;;;;;;;;;37.60;23.42;98818.28;5022593;28;19921;-88
2023/10/02 14:06:32;;;;;;;;;;;;;;;37.83;22.14;98820.03;5033156;28;19967;-88
2023/10/02 14:08:59;;;;;;;;;;;;;;;37.79;23.19;98819.41;4994378;28;19918;-88